Katerina L — 3FQL2 — position and weather

sailwx.info

Track history (hours):
 
Tides and Currents Weather Stations Pressure Air Temp Water Temp Dewpoint Dewpoint Depression Visibility Wind Speed Wind Dir Waves Ship Positions

Katerina L

Last reported at 2016-Feb-05 06:33 UTC. Time now 2016-Feb-07 10:37 UTC.
Position N 37°12' E 025°47'.

Length 91 m; draft 5.5 m.

Type: Tanker. MMSI: 356460000.

Date/timePositionNaut miles runAvg speedWind from/ knotsBaromVisibWave heightAir tempDewpointWater temp
2016-Feb-05 06:33N 37°12' E 025°47'7 6.6
2016-Feb-05 05:33N 37°14' E 025°39'6 6.2
2016-Feb-05 04:33N 37°15' E 025°31'7 6.7
2016-Feb-05 03:33N 37°16' E 025°23'6 6.3
2016-Feb-05 02:33N 37°17' E 025°15'6 5.9
2016-Feb-05 01:33N 37°18' E 025°08'6 5.9
2016-Feb-05 00:33N 37°19' E 025°01'6 5.8
2016-Feb-04 23:33N 37°20' E 024°53'5 5.1
2016-Feb-04 22:33N 37°22' E 024°48'49 4.7
2016-Feb-04 12:19N 37°37' E 023°50'4 4.9
2016-Feb-04 11:31N 37°39' E 023°45'5 4.7
2016-Feb-04 10:33N 37°42' E 023°41'5 5.3
2016-Feb-04 09:33N 37°47' E 023°38'5 5.2
2016-Feb-04 08:33N 37°52' E 023°36'5 5.4
2016-Feb-04 07:33N 37°57' E 023°35'4 4.4
2016-Feb-04 06:33N 38°01' E 023°33'0 0.0
2016-Feb-04 05:33N 38°01' E 023°33'0 0.1
2016-Feb-04 04:33N 38°01' E 023°33'0 0.1
2016-Feb-04 03:33N 38°01' E 023°33'0 0.1
2016-Feb-04 02:30N 38°01' E 023°33'0 0.0
2016-Feb-04 01:33N 38°01' E 023°33'0 0.0
2016-Feb-04 00:33N 38°01' E 023°33'0 0.1
2016-Feb-03 23:34N 38°01' E 023°33'3 2.6
2016-Feb-03 22:33N 38°02' E 023°36'0 0.0
2016-Feb-03 21:33N 38°02' E 023°36'0 0.0
2016-Feb-03 20:33N 38°02' E 023°36'0 0.0
2016-Feb-03 19:33N 38°02' E 023°36'0 0.0
2016-Feb-03 18:33N 38°02' E 023°36'0 0.0
2016-Feb-03 17:33N 38°02' E 023°36'0 0.0
2016-Feb-03 16:33N 38°02' E 023°36'0 0.0
2016-Feb-03 15:33N 38°02' E 023°36'0 0.0
2016-Feb-03 14:33N 38°02' E 023°36'0 0.0
2016-Feb-03 13:30N 38°02' E 023°36'0 0.0
2016-Feb-03 12:33N 38°02' E 023°36'0 0.0
2016-Feb-03 11:33N 38°02' E 023°36'0 0.0
2016-Feb-03 10:33N 38°02' E 023°36'0 0.0
2016-Feb-03 09:33N 38°02' E 023°36'0 0.0
2016-Feb-03 08:33N 38°02' E 023°36'0 0.0
2016-Feb-03 07:33N 38°02' E 023°36'0 0.0
2016-Feb-03 06:33N 38°02' E 023°36'0 0.0
2016-Feb-03 05:33N 38°02' E 023°36'0 0.0
2016-Feb-03 04:33N 38°02' E 023°36'0 0.0
2016-Feb-03 03:33N 38°02' E 023°36'0 0.0
2016-Feb-03 02:33N 38°02' E 023°36'0 0.0
2016-Feb-03 01:33N 38°02' E 023°36'0 0.0
2016-Feb-03 00:33N 38°02' E 023°36'0 0.0
2016-Feb-02 23:33N 38°02' E 023°36'0 0.0
2016-Feb-02 22:33N 38°02' E 023°36'0 0.0
2016-Feb-02 21:33N 38°02' E 023°36'0 0.0
2016-Feb-02 20:33N 38°02' E 023°36'0 0.0
2016-Feb-02 19:33N 38°02' E 023°36'1 1.5
2016-Feb-02 18:33N 38°01' E 023°34'2 2.2
2016-Feb-02 17:33N 38°02' E 023°32'0 0.0
2016-Feb-02 16:30N 38°02' E 023°32'0 0.0
2016-Feb-02 15:33N 38°02' E 023°32'0 0.0
2016-Feb-02 14:33N 38°02' E 023°32'0 0.0
2016-Feb-02 13:33N 38°02' E 023°32'0 0.0
2016-Feb-02 12:33N 38°02' E 023°32'0 0.0
2016-Feb-02 11:33N 38°02' E 023°32'0 0.0
2016-Feb-02 10:30N 38°02' E 023°32'0 0.0
2016-Feb-02 09:30N 38°02' E 023°32'0 0.1
2016-Feb-02 08:30N 38°02' E 023°32'0 0.0
2016-Feb-02 07:33N 38°02' E 023°32'0 0.0
2016-Feb-02 06:30N 38°02' E 023°32'0 0.0
2016-Feb-02 05:33N 38°02' E 023°32'0 0.1
2016-Feb-02 04:33N 38°02' E 023°32'0 0.1
2016-Feb-02 03:33N 38°02' E 023°32'0 0.1
2016-Feb-02 02:33N 38°02' E 023°32'0 0.0
2016-Feb-02 01:33N 38°02' E 023°32'0 0.0
2016-Feb-02 00:33N 38°02' E 023°32'0 0.0
2016-Feb-01 23:33N 38°02' E 023°32'0 0.0
2016-Feb-01 22:33N 38°02' E 023°32'0 0.0
2016-Feb-01 21:33N 38°02' E 023°32'0 0.0
2016-Feb-01 20:30N 38°02' E 023°32'0 0.0
2016-Feb-01 19:33N 38°02' E 023°32'0 0.0
2016-Feb-01 18:33N 38°02' E 023°32'0 0.0
2016-Feb-01 17:33N 38°02' E 023°32'0 0.0
2016-Feb-01 16:33N 38°02' E 023°32'0 0.1
2016-Feb-01 15:33N 38°02' E 023°32'0 0.0
2016-Feb-01 14:33N 38°02' E 023°32'0 0.0
2016-Feb-01 13:33N 38°02' E 023°32'0 0.0
2016-Feb-01 12:33N 38°02' E 023°32'0 0.0
2016-Feb-01 11:33N 38°02' E 023°32'0 0.0
2016-Feb-01 10:30N 38°02' E 023°32'0 0.0
2016-Feb-01 09:33N 38°02' E 023°32'0 0.1
2016-Feb-01 08:33N 38°02' E 023°32'0 0.0
2016-Feb-01 07:33N 38°02' E 023°32'0 0.0
2016-Feb-01 06:33N 38°02' E 023°32'0 0.1
2016-Feb-01 05:33N 38°02' E 023°32'0 0.1
2016-Feb-01 04:33N 38°02' E 023°32'0 0.0
2016-Feb-01 03:30N 38°02' E 023°32'0 0.0
2016-Feb-01 02:33N 38°02' E 023°32'0 0.0
2016-Feb-01 01:33N 38°02' E 023°32'0 0.0
2016-Feb-01 00:33N 38°02' E 023°32'0 0.0
2016-Jan-31 23:30N 38°02' E 023°32'0 0.0
2016-Jan-31 22:30N 38°02' E 023°32'0 0.0
2016-Jan-31 21:33N 38°02' E 023°32'0 0.1
2016-Jan-31 20:33N 38°02' E 023°32'0 0.1
2016-Jan-31 19:33N 38°02' E 023°32'0 0.0
2016-Jan-31 18:33N 38°02' E 023°32'0 0.0
2016-Jan-31 17:33N 38°02' E 023°32'0 0.0
2016-Jan-31 16:33N 38°02' E 023°32'0 0.0
2016-Jan-31 15:33N 38°02' E 023°32'0 0.0
2016-Jan-31 14:33N 38°02' E 023°32'0 0.0
2016-Jan-31 13:33N 38°02' E 023°32'0 0.0
2016-Jan-31 12:33N 38°02' E 023°32'0 0.0
2016-Jan-31 11:33N 38°02' E 023°32'0 0.0
2016-Jan-31 10:33N 38°02' E 023°32'0 0.0
2016-Jan-31 09:33N 38°02' E 023°32'0 0.1
2016-Jan-31 08:33N 38°02' E 023°32'0 0.1
2016-Jan-31 07:33N 38°02' E 023°32'0 0.0
2016-Jan-31 06:30N 38°02' E 023°32'0 0.0
2016-Jan-31 05:33N 38°02' E 023°32'0 0.0
2016-Jan-31 04:33N 38°02' E 023°32'0 0.0
2016-Jan-31 03:33N 38°02' E 023°32'0 0.0
2016-Jan-31 02:33N 38°02' E 023°32'0 0.0
2016-Jan-31 01:33N 38°02' E 023°32'0 0.0
2016-Jan-31 00:33N 38°02' E 023°32'0 0.0
2016-Jan-30 23:33N 38°02' E 023°32'0 0.0
2016-Jan-30 22:33N 38°02' E 023°32'0 0.0
2016-Jan-30 21:33N 38°02' E 023°32'0 0.0
2016-Jan-30 20:33N 38°02' E 023°32'0 0.0
2016-Jan-30 19:33N 38°02' E 023°32'0 0.0
2016-Jan-30 18:33N 38°02' E 023°32'0 0.1
2016-Jan-30 17:33N 38°02' E 023°32'0 0.0
2016-Jan-30 16:33N 38°02' E 023°32'0 0.0
2016-Jan-30 15:33N 38°02' E 023°32'0 0.0
2016-Jan-30 14:33N 38°02' E 023°32'0 0.0
2016-Jan-30 13:33N 38°02' E 023°32'0 0.0
2016-Jan-30 12:33N 38°02' E 023°32'0 0.0
2016-Jan-30 11:33N 38°02' E 023°32'0 0.0
2016-Jan-30 10:33N 38°02' E 023°32'0 0.0
2016-Jan-30 09:33N 38°02' E 023°32'0 0.0
2016-Jan-30 08:33N 38°02' E 023°32'0 0.0
2016-Jan-30 07:33N 38°02' E 023°32'0 0.0
2016-Jan-30 06:30N 38°02' E 023°32'0 0.0
2016-Jan-30 05:33N 38°02' E 023°32'0 0.0
2016-Jan-30 04:33N 38°02' E 023°32'0 0.0
2016-Jan-30 03:33N 38°02' E 023°32'0 0.0
2016-Jan-30 02:33N 38°02' E 023°32'0 0.0
2016-Jan-30 01:33N 38°02' E 023°32'0 0.0
2016-Jan-30 00:33N 38°02' E 023°32'0 0.0
2016-Jan-29 23:33N 38°02' E 023°32'0 0.0
2016-Jan-29 22:33N 38°02' E 023°32'0 0.0
2016-Jan-29 21:30N 38°02' E 023°32'0 0.0
2016-Jan-29 20:33N 38°02' E 023°32'0 0.0
2016-Jan-29 19:33N 38°02' E 023°32'0 0.0
2016-Jan-29 18:33N 38°02' E 023°32'0 0.0
2016-Jan-29 17:33N 38°02' E 023°32'0 0.1
2016-Jan-29 16:33N 38°02' E 023°32'0 0.0
2016-Jan-29 15:33N 38°02' E 023°32'0 0.0
2016-Jan-29 14:30N 38°02' E 023°32'0 0.1
2016-Jan-29 13:33N 38°02' E 023°32'0 0.1
2016-Jan-29 12:24N 38°02' E 023°32'0 0.0
2016-Jan-29 11:33N 38°02' E 023°32'0 0.0
2016-Jan-29 10:30N 38°02' E 023°32'0 0.1
2016-Jan-29 09:33N 38°02' E 023°32'0 0.0
2016-Jan-29 08:33N 38°02' E 023°32'0 0.0
2016-Jan-29 07:33N 38°02' E 023°32'0 0.0
2016-Jan-29 06:24N 38°02' E 023°32'0 0.0
2016-Jan-29 05:33N 38°02' E 023°32'0 0.0
2016-Jan-29 04:30N 38°02' E 023°32'0 0.0
2016-Jan-29 03:33N 38°02' E 023°32'0 0.0
2016-Jan-29 02:33N 38°02' E 023°32'0 0.0
2016-Jan-29 01:33N 38°02' E 023°32'0 0.0
2016-Jan-29 00:33N 38°02' E 023°32'0 0.0
2016-Jan-28 23:33N 38°02' E 023°32'0 0.0
2016-Jan-28 22:33N 38°02' E 023°32'0 0.0
2016-Jan-28 21:33N 38°02' E 023°32'0 0.0
2016-Jan-28 20:33N 38°02' E 023°32'0 0.0
2016-Jan-28 19:33N 38°02' E 023°32'0 0.0
2016-Jan-28 18:33N 38°02' E 023°32'0 0.0
2016-Jan-28 17:33N 38°02' E 023°32'0 0.0
2016-Jan-28 16:33N 38°02' E 023°32'0 0.0
2016-Jan-28 15:33N 38°02' E 023°32'0 0.0
2016-Jan-28 14:33N 38°02' E 023°32'0 0.0
2016-Jan-28 13:33N 38°02' E 023°32'0 0.0
2016-Jan-28 12:33N 38°02' E 023°32'0 0.0
2016-Jan-28 11:33N 38°02' E 023°32'0 0.1
2016-Jan-28 10:33N 38°02' E 023°32'0 0.0
2016-Jan-28 09:33N 38°02' E 023°32'2 1.8
2016-Jan-28 08:34N 38°00' E 023°33'6 5.9
2016-Jan-28 07:33N 37°55' E 023°37'7 6.6
2016-Jan-28 06:34N 37°49' E 023°40'7 7.4
2016-Jan-28 05:33N 37°43' E 023°44'51 6.9
2016-Jan-27 22:12N 37°24' E 024°44'5 7.3
2016-Jan-27 21:34N 37°21' E 024°49'7 7.1
2016-Jan-27 20:34N 37°19' E 024°57'7 7.2
2016-Jan-27 19:33N 37°18' E 025°06'7 7.5
2016-Jan-27 18:34N 37°17' E 025°15'7 7.4
2016-Jan-27 17:34N 37°16' E 025°25'7 7.4
2016-Jan-27 16:33N 37°15' E 025°34'7 7.1
2016-Jan-27 15:34N 37°14' E 025°43'  
Track history (hours):
 
Tides and Currents Weather Stations Pressure Air Temp Water Temp Dewpoint Dewpoint Depression Visibility Wind Speed Wind Dir Waves Ship Positions

Katerina L

Last reported at 2016-Feb-05 06:33 UTC. Time now 2016-Feb-07 10:37 UTC.
Position N 37°12' E 025°47'.

Length 91 m; draft 5.5 m.

Type: Tanker. MMSI: 356460000.

Date/timePositionNaut miles runAvg speedWind from/ knotsBaromVisibWave heightAir tempDewpointWater temp
2016-Feb-05 06:33N 37°12' E 025°47'7 6.6
2016-Feb-05 05:33N 37°14' E 025°39'6 6.2
2016-Feb-05 04:33N 37°15' E 025°31'7 6.7
2016-Feb-05 03:33N 37°16' E 025°23'6 6.3
2016-Feb-05 02:33N 37°17' E 025°15'6 5.9
2016-Feb-05 01:33N 37°18' E 025°08'6 5.9
2016-Feb-05 00:33N 37°19' E 025°01'6 5.8
2016-Feb-04 23:33N 37°20' E 024°53'5 5.1
2016-Feb-04 22:33N 37°22' E 024°48'49 4.7
2016-Feb-04 12:19N 37°37' E 023°50'4 4.9
2016-Feb-04 11:31N 37°39' E 023°45'5 4.7
2016-Feb-04 10:33N 37°42' E 023°41'5 5.3
2016-Feb-04 09:33N 37°47' E 023°38'5 5.2
2016-Feb-04 08:33N 37°52' E 023°36'5 5.4
2016-Feb-04 07:33N 37°57' E 023°35'4 4.4
2016-Feb-04 06:33N 38°01' E 023°33'0 0.0
2016-Feb-04 05:33N 38°01' E 023°33'0 0.1
2016-Feb-04 04:33N 38°01' E 023°33'0 0.1
2016-Feb-04 03:33N 38°01' E 023°33'0 0.1
2016-Feb-04 02:30N 38°01' E 023°33'0 0.0
2016-Feb-04 01:33N 38°01' E 023°33'0 0.0
2016-Feb-04 00:33N 38°01' E 023°33'0 0.1
2016-Feb-03 23:34N 38°01' E 023°33'3 2.6
2016-Feb-03 22:33N 38°02' E 023°36'0 0.0
2016-Feb-03 21:33N 38°02' E 023°36'0 0.0
2016-Feb-03 20:33N 38°02' E 023°36'0 0.0
2016-Feb-03 19:33N 38°02' E 023°36'0 0.0
2016-Feb-03 18:33N 38°02' E 023°36'0 0.0
2016-Feb-03 17:33N 38°02' E 023°36'0 0.0
2016-Feb-03 16:33N 38°02' E 023°36'0 0.0
2016-Feb-03 15:33N 38°02' E 023°36'0 0.0
2016-Feb-03 14:33N 38°02' E 023°36'0 0.0
2016-Feb-03 13:30N 38°02' E 023°36'0 0.0
2016-Feb-03 12:33N 38°02' E 023°36'0 0.0
2016-Feb-03 11:33N 38°02' E 023°36'0 0.0
2016-Feb-03 10:33N 38°02' E 023°36'0 0.0
2016-Feb-03 09:33N 38°02' E 023°36'0 0.0
2016-Feb-03 08:33N 38°02' E 023°36'0 0.0
2016-Feb-03 07:33N 38°02' E 023°36'0 0.0
2016-Feb-03 06:33N 38°02' E 023°36'0 0.0
2016-Feb-03 05:33N 38°02' E 023°36'0 0.0
2016-Feb-03 04:33N 38°02' E 023°36'0 0.0
2016-Feb-03 03:33N 38°02' E 023°36'0 0.0
2016-Feb-03 02:33N 38°02' E 023°36'0 0.0
2016-Feb-03 01:33N 38°02' E 023°36'0 0.0
2016-Feb-03 00:33N 38°02' E 023°36'0 0.0
2016-Feb-02 23:33N 38°02' E 023°36'0 0.0
2016-Feb-02 22:33N 38°02' E 023°36'0 0.0
2016-Feb-02 21:33N 38°02' E 023°36'0 0.0
2016-Feb-02 20:33N 38°02' E 023°36'0 0.0
2016-Feb-02 19:33N 38°02' E 023°36'1 1.5
2016-Feb-02 18:33N 38°01' E 023°34'2 2.2
2016-Feb-02 17:33N 38°02' E 023°32'0 0.0
2016-Feb-02 16:30N 38°02' E 023°32'0 0.0
2016-Feb-02 15:33N 38°02' E 023°32'0 0.0
2016-Feb-02 14:33N 38°02' E 023°32'0 0.0
2016-Feb-02 13:33N 38°02' E 023°32'0 0.0
2016-Feb-02 12:33N 38°02' E 023°32'0 0.0
2016-Feb-02 11:33N 38°02' E 023°32'0 0.0
2016-Feb-02 10:30N 38°02' E 023°32'0 0.0
2016-Feb-02 09:30N 38°02' E 023°32'0 0.1
2016-Feb-02 08:30N 38°02' E 023°32'0 0.0
2016-Feb-02 07:33N 38°02' E 023°32'0 0.0
2016-Feb-02 06:30N 38°02' E 023°32'0 0.0
2016-Feb-02 05:33N 38°02' E 023°32'0 0.1
2016-Feb-02 04:33N 38°02' E 023°32'0 0.1
2016-Feb-02 03:33N 38°02' E 023°32'0 0.1
2016-Feb-02 02:33N 38°02' E 023°32'0 0.0
2016-Feb-02 01:33N 38°02' E 023°32'0 0.0
2016-Feb-02 00:33N 38°02' E 023°32'0 0.0
2016-Feb-01 23:33N 38°02' E 023°32'0 0.0
2016-Feb-01 22:33N 38°02' E 023°32'0 0.0
2016-Feb-01 21:33N 38°02' E 023°32'0 0.0
2016-Feb-01 20:30N 38°02' E 023°32'0 0.0
2016-Feb-01 19:33N 38°02' E 023°32'0 0.0
2016-Feb-01 18:33N 38°02' E 023°32'0 0.0
2016-Feb-01 17:33N 38°02' E 023°32'0 0.0
2016-Feb-01 16:33N 38°02' E 023°32'0 0.1
2016-Feb-01 15:33N 38°02' E 023°32'0 0.0
2016-Feb-01 14:33N 38°02' E 023°32'0 0.0
2016-Feb-01 13:33N 38°02' E 023°32'0 0.0
2016-Feb-01 12:33N 38°02' E 023°32'0 0.0
2016-Feb-01 11:33N 38°02' E 023°32'0 0.0
2016-Feb-01 10:30N 38°02' E 023°32'0 0.0
2016-Feb-01 09:33N 38°02' E 023°32'0 0.1
2016-Feb-01 08:33N 38°02' E 023°32'0 0.0
2016-Feb-01 07:33N 38°02' E 023°32'0 0.0
2016-Feb-01 06:33N 38°02' E 023°32'0 0.1
2016-Feb-01 05:33N 38°02' E 023°32'0 0.1
2016-Feb-01 04:33N 38°02' E 023°32'0 0.0
2016-Feb-01 03:30N 38°02' E 023°32'0 0.0
2016-Feb-01 02:33N 38°02' E 023°32'0 0.0
2016-Feb-01 01:33N 38°02' E 023°32'0 0.0
2016-Feb-01 00:33N 38°02' E 023°32'0 0.0
2016-Jan-31 23:30N 38°02' E 023°32'0 0.0
2016-Jan-31 22:30N 38°02' E 023°32'0 0.0
2016-Jan-31 21:33N 38°02' E 023°32'0 0.1
2016-Jan-31 20:33N 38°02' E 023°32'0 0.1
2016-Jan-31 19:33N 38°02' E 023°32'0 0.0
2016-Jan-31 18:33N 38°02' E 023°32'0 0.0
2016-Jan-31 17:33N 38°02' E 023°32'0 0.0
2016-Jan-31 16:33N 38°02' E 023°32'0 0.0
2016-Jan-31 15:33N 38°02' E 023°32'0 0.0
2016-Jan-31 14:33N 38°02' E 023°32'0 0.0
2016-Jan-31 13:33N 38°02' E 023°32'0 0.0
2016-Jan-31 12:33N 38°02' E 023°32'0 0.0
2016-Jan-31 11:33N 38°02' E 023°32'0 0.0
2016-Jan-31 10:33N 38°02' E 023°32'0 0.0
2016-Jan-31 09:33N 38°02' E 023°32'0 0.1
2016-Jan-31 08:33N 38°02' E 023°32'0 0.1
2016-Jan-31 07:33N 38°02' E 023°32'0 0.0
2016-Jan-31 06:30N 38°02' E 023°32'0 0.0
2016-Jan-31 05:33N 38°02' E 023°32'0 0.0
2016-Jan-31 04:33N 38°02' E 023°32'0 0.0
2016-Jan-31 03:33N 38°02' E 023°32'0 0.0
2016-Jan-31 02:33N 38°02' E 023°32'0 0.0
2016-Jan-31 01:33N 38°02' E 023°32'0 0.0
2016-Jan-31 00:33N 38°02' E 023°32'0 0.0
2016-Jan-30 23:33N 38°02' E 023°32'0 0.0
2016-Jan-30 22:33N 38°02' E 023°32'0 0.0
2016-Jan-30 21:33N 38°02' E 023°32'0 0.0
2016-Jan-30 20:33N 38°02' E 023°32'0 0.0
2016-Jan-30 19:33N 38°02' E 023°32'0 0.0
2016-Jan-30 18:33N 38°02' E 023°32'0 0.1
2016-Jan-30 17:33N 38°02' E 023°32'0 0.0
2016-Jan-30 16:33N 38°02' E 023°32'0 0.0
2016-Jan-30 15:33N 38°02' E 023°32'0 0.0
2016-Jan-30 14:33N 38°02' E 023°32'0 0.0
2016-Jan-30 13:33N 38°02' E 023°32'0 0.0
2016-Jan-30 12:33N 38°02' E 023°32'0 0.0
2016-Jan-30 11:33N 38°02' E 023°32'0 0.0
2016-Jan-30 10:33N 38°02' E 023°32'0 0.0
2016-Jan-30 09:33N 38°02' E 023°32'0 0.0
2016-Jan-30 08:33N 38°02' E 023°32'0 0.0
2016-Jan-30 07:33N 38°02' E 023°32'0 0.0
2016-Jan-30 06:30N 38°02' E 023°32'0 0.0
2016-Jan-30 05:33N 38°02' E 023°32'0 0.0
2016-Jan-30 04:33N 38°02' E 023°32'0 0.0
2016-Jan-30 03:33N 38°02' E 023°32'0 0.0
2016-Jan-30 02:33N 38°02' E 023°32'0 0.0
2016-Jan-30 01:33N 38°02' E 023°32'0 0.0
2016-Jan-30 00:33N 38°02' E 023°32'0 0.0
2016-Jan-29 23:33N 38°02' E 023°32'0 0.0
2016-Jan-29 22:33N 38°02' E 023°32'0 0.0
2016-Jan-29 21:30N 38°02' E 023°32'0 0.0
2016-Jan-29 20:33N 38°02' E 023°32'0 0.0
2016-Jan-29 19:33N 38°02' E 023°32'0 0.0
2016-Jan-29 18:33N 38°02' E 023°32'0 0.0
2016-Jan-29 17:33N 38°02' E 023°32'0 0.1
2016-Jan-29 16:33N 38°02' E 023°32'0 0.0
2016-Jan-29 15:33N 38°02' E 023°32'0 0.0
2016-Jan-29 14:30N 38°02' E 023°32'0 0.1
2016-Jan-29 13:33N 38°02' E 023°32'0 0.1
2016-Jan-29 12:24N 38°02' E 023°32'0 0.0
2016-Jan-29 11:33N 38°02' E 023°32'0 0.0
2016-Jan-29 10:30N 38°02' E 023°32'0 0.1
2016-Jan-29 09:33N 38°02' E 023°32'0 0.0
2016-Jan-29 08:33N 38°02' E 023°32'0 0.0
2016-Jan-29 07:33N 38°02' E 023°32'0 0.0
2016-Jan-29 06:24N 38°02' E 023°32'0 0.0
2016-Jan-29 05:33N 38°02' E 023°32'0 0.0
2016-Jan-29 04:30N 38°02' E 023°32'0 0.0
2016-Jan-29 03:33N 38°02' E 023°32'0 0.0
2016-Jan-29 02:33N 38°02' E 023°32'0 0.0
2016-Jan-29 01:33N 38°02' E 023°32'0 0.0
2016-Jan-29 00:33N 38°02' E 023°32'0 0.0
2016-Jan-28 23:33N 38°02' E 023°32'0 0.0
2016-Jan-28 22:33N 38°02' E 023°32'0 0.0
2016-Jan-28 21:33N 38°02' E 023°32'0 0.0
2016-Jan-28 20:33N 38°02' E 023°32'0 0.0
2016-Jan-28 19:33N 38°02' E 023°32'0 0.0
2016-Jan-28 18:33N 38°02' E 023°32'0 0.0
2016-Jan-28 17:33N 38°02' E 023°32'0 0.0
2016-Jan-28 16:33N 38°02' E 023°32'0 0.0
2016-Jan-28 15:33N 38°02' E 023°32'0 0.0
2016-Jan-28 14:33N 38°02' E 023°32'0 0.0
2016-Jan-28 13:33N 38°02' E 023°32'0 0.0
2016-Jan-28 12:33N 38°02' E 023°32'0 0.0
2016-Jan-28 11:33N 38°02' E 023°32'0 0.1
2016-Jan-28 10:33N 38°02' E 023°32'0 0.0
2016-Jan-28 09:33N 38°02' E 023°32'2 1.8
2016-Jan-28 08:34N 38°00' E 023°33'6 5.9
2016-Jan-28 07:33N 37°55' E 023°37'7 6.6
2016-Jan-28 06:34N 37°49' E 023°40'7 7.4
2016-Jan-28 05:33N 37°43' E 023°44'51 6.9
2016-Jan-27 22:12N 37°24' E 024°44'5 7.3
2016-Jan-27 21:34N 37°21' E 024°49'7 7.1
2016-Jan-27 20:34N 37°19' E 024°57'7 7.2
2016-Jan-27 19:33N 37°18' E 025°06'7 7.5
2016-Jan-27 18:34N 37°17' E 025°15'7 7.4
2016-Jan-27 17:34N 37°16' E 025°25'7 7.4
2016-Jan-27 16:33N 37°15' E 025°34'7 7.1
2016-Jan-27 15:34N 37°14' E 025°43'  

Dump ship's entire track history